createdAt,value
2023-02-09T00:00:02.777Z,43.67
2023-02-09T00:02:40.076Z,47.17
2023-02-09T00:05:07.580Z,45.23
2023-02-09T00:07:33.952Z,45.93
2023-02-09T00:10:00.395Z,41.23
2023-02-09T00:12:45.428Z,47.73
2023-02-09T00:15:12.110Z,44.27
2023-02-09T00:17:38.612Z,42.80
2023-02-09T00:20:07.212Z,45.80
2023-02-09T00:22:34.299Z,50.70
2023-02-09T00:25:00.738Z,47.80
2023-02-09T00:27:27.933Z,47.67
2023-02-09T00:29:54.367Z,49.07
2023-02-09T00:32:20.780Z,48.50
2023-02-09T00:34:47.391Z,47.97
2023-02-09T00:37:13.764Z,47.07
2023-02-09T00:39:40.399Z,48.27
2023-02-09T00:42:06.863Z,50.47
2023-02-09T00:44:39.397Z,46.20
2023-02-09T00:47:07.373Z,49.37
2023-02-09T00:49:34.390Z,50.00
2023-02-09T00:52:00.791Z,46.23
2023-02-09T00:54:28.025Z,46.20
2023-02-09T00:56:54.445Z,44.00
2023-02-09T00:59:20.873Z,45.47
2023-02-09T01:01:47.352Z,44.03
2023-02-09T01:04:14.418Z,45.23
2023-02-09T01:06:40.911Z,42.13
2023-02-09T01:09:07.569Z,41.87
2023-02-09T01:11:33.975Z,40.43
2023-02-09T01:14:03.205Z,44.03
2023-02-09T01:16:31.692Z,43.20
2023-02-09T01:19:02.425Z,39.03
2023-02-09T01:21:29.508Z,40.80
2023-02-09T01:23:56.383Z,40.67
2023-02-09T01:26:23.018Z,38.27
2023-02-09T01:28:53.694Z,35.37
2023-02-09T01:31:32.628Z,35.37
2023-02-09T01:34:01.955Z,36.87
2023-02-09T01:36:29.833Z,41.83
2023-02-09T01:38:58.451Z,40.00
2023-02-09T01:41:25.428Z,38.40
2023-02-09T01:44:01.353Z,37.90
2023-02-09T01:46:30.537Z,29.53
2023-02-09T01:49:05.112Z,37.33
2023-02-09T01:51:36.632Z,37.47
2023-02-09T01:54:12.809Z,34.60
2023-02-09T01:56:42.761Z,32.20
2023-02-09T01:59:10.438Z,31.17
2023-02-09T02:01:38.061Z,32.00
2023-02-09T02:04:05.500Z,34.70
2023-02-09T02:06:32.401Z,31.10
2023-02-09T02:09:04.590Z,24.17
2023-02-09T02:11:32.909Z,31.93
2023-02-09T02:13:59.382Z,25.60
2023-02-09T02:16:33.802Z,22.57
2023-02-09T02:19:32.437Z,25.23
2023-02-09T02:22:14.080Z,24.93
2023-02-09T02:25:11.169Z,25.10
2023-02-09T02:27:48.791Z,26.17
2023-02-09T02:30:28.907Z,24.07
2023-02-09T02:33:03.353Z,23.17
2023-02-09T02:35:42.958Z,21.73
2023-02-09T02:38:37.513Z,23.20
2023-02-09T02:41:17.307Z,22.10
2023-02-09T02:43:49.676Z,24.17
2023-02-09T02:46:27.713Z,20.93
2023-02-09T02:49:01.032Z,18.30
2023-02-09T02:51:36.186Z,24.53
2023-02-09T02:54:08.323Z,21.47
2023-02-09T02:56:42.820Z,21.47
2023-02-09T02:59:17.554Z,17.87
2023-02-09T03:01:52.453Z,21.83
2023-02-09T03:04:20.522Z,19.40
2023-02-09T03:06:46.909Z,21.87
2023-02-09T03:09:13.511Z,23.60
2023-02-09T03:11:44.159Z,18.93
2023-02-09T03:14:25.676Z,19.70
2023-02-09T03:17:09.008Z,23.10
2023-02-09T03:20:05.827Z,23.03
2023-02-09T03:22:38.614Z,19.13
2023-02-09T03:25:12.295Z,20.57
2023-02-09T03:27:48.797Z,19.77
2023-02-09T03:30:17.272Z,20.90
2023-02-09T03:32:46.975Z,21.57
2023-02-09T03:35:17.261Z,20.30
2023-02-09T03:37:43.855Z,20.77
2023-02-09T03:40:10.941Z,25.57
2023-02-09T03:42:37.629Z,17.67
2023-02-09T03:45:04.368Z,20.20
2023-02-09T03:47:30.823Z,20.57
2023-02-09T03:49:58.289Z,19.00
2023-02-09T03:52:24.760Z,21.47
2023-02-09T03:54:51.207Z,20.50
2023-02-09T03:57:17.648Z,23.17
2023-02-09T03:59:44.059Z,20.80
2023-02-09T04:02:10.923Z,19.93
2023-02-09T04:04:37.664Z,19.33
2023-02-09T04:07:04.657Z,24.43
2023-02-09T04:09:31.222Z,21.00
2023-02-09T04:11:57.681Z,19.90
2023-02-09T04:14:24.400Z,18.63
2023-02-09T04:16:50.871Z,20.67
2023-02-09T04:19:17.373Z,23.60
2023-02-09T04:21:43.948Z,23.53
2023-02-09T04:24:10.703Z,26.80
2023-02-09T04:26:37.514Z,26.20
2023-02-09T04:29:04.651Z,22.43
2023-02-09T04:31:32.041Z,28.07
2023-02-09T04:33:58.486Z,23.27
2023-02-09T04:36:24.891Z,22.00
2023-02-09T04:38:51.372Z,19.93
2023-02-09T04:41:17.930Z,19.47
2023-02-09T04:43:46.240Z,22.33
2023-02-09T04:46:17.925Z,22.80
2023-02-09T04:48:45.509Z,19.70
2023-02-09T04:51:12.731Z,21.90
2023-02-09T04:53:39.209Z,21.70
2023-02-09T04:56:06.266Z,20.40
2023-02-09T04:58:51.820Z,21.30
2023-02-09T05:01:24.380Z,20.37
2023-02-09T05:03:51.451Z,21.07
2023-02-09T05:06:18.549Z,21.70
2023-02-09T05:08:45.505Z,19.30
2023-02-09T05:11:12.655Z,19.60
2023-02-09T05:13:39.114Z,21.47
2023-02-09T05:16:07.645Z,20.03
2023-02-09T05:18:35.662Z,17.03
2023-02-09T05:21:03.297Z,21.47
2023-02-09T05:23:30.136Z,19.40
2023-02-09T05:25:56.531Z,23.90
2023-02-09T05:28:24.518Z,19.07
2023-02-09T05:30:54.364Z,21.57
2023-02-09T05:33:22.665Z,23.20
2023-02-09T05:35:50.775Z,28.60
2023-02-09T05:38:17.401Z,30.80
2023-02-09T05:40:45.267Z,25.90
2023-02-09T05:43:12.019Z,20.10
2023-02-09T05:45:38.841Z,20.43
2023-02-09T05:48:05.476Z,19.33
2023-02-09T05:50:32.071Z,22.13
2023-02-09T05:52:59.929Z,20.73
2023-02-09T05:55:26.368Z,19.33
2023-02-09T05:57:52.819Z,21.23
2023-02-09T06:00:19.646Z,23.60
2023-02-09T06:02:46.148Z,18.33
2023-02-09T06:05:13.239Z,17.30
2023-02-09T06:07:39.631Z,20.43
2023-02-09T06:10:08.806Z,19.13
2023-02-09T06:12:35.212Z,21.50
2023-02-09T06:15:02.573Z,19.67
2023-02-09T06:17:28.973Z,20.67
2023-02-09T06:19:55.376Z,17.33
2023-02-09T06:22:21.788Z,19.77
2023-02-09T06:24:48.218Z,21.50
2023-02-09T06:27:14.602Z,19.37
2023-02-09T06:29:41.070Z,19.83
2023-02-09T06:32:07.823Z,20.87
2023-02-09T06:34:34.428Z,19.43
2023-02-09T06:37:00.855Z,19.77
2023-02-09T06:39:27.313Z,18.40
2023-02-09T06:41:53.792Z,23.00
2023-02-09T06:44:20.599Z,19.70
2023-02-09T06:46:47.365Z,22.00
2023-02-09T06:49:13.810Z,16.87
2023-02-09T06:51:40.469Z,22.90
2023-02-09T06:54:07.507Z,20.33
2023-02-09T06:56:34.140Z,20.83
2023-02-09T06:59:00.563Z,23.83
2023-02-09T07:01:28.030Z,17.17
2023-02-09T07:03:54.506Z,19.03
2023-02-09T07:06:21.348Z,21.80
2023-02-09T07:08:49.599Z,20.87
2023-02-09T07:11:17.893Z,19.17
2023-02-09T07:13:45.785Z,20.67
2023-02-09T07:16:12.739Z,21.67
2023-02-09T07:18:39.712Z,19.80
2023-02-09T07:21:09.847Z,18.77
2023-02-09T07:23:36.739Z,20.00
2023-02-09T07:26:05.434Z,19.83
2023-02-09T07:28:33.212Z,20.03
2023-02-09T07:31:06.380Z,23.77
2023-02-09T07:33:33.804Z,24.20
2023-02-09T07:36:02.533Z,26.40
2023-02-09T07:38:29.289Z,23.03
2023-02-09T07:40:58.948Z,19.33
2023-02-09T07:43:25.582Z,22.40
2023-02-09T07:45:52.137Z,18.73
2023-02-09T07:48:18.548Z,20.90
2023-02-09T07:50:49.774Z,22.03
2023-02-09T07:53:16.927Z,25.53
2023-02-09T07:55:43.805Z,18.93
2023-02-09T07:58:10.604Z,17.70
2023-02-09T08:00:37.084Z,18.07
2023-02-09T08:03:04.397Z,21.27
2023-02-09T08:05:36.212Z,21.10
2023-02-09T08:08:02.752Z,20.70
2023-02-09T08:10:29.276Z,20.23
2023-02-09T08:13:02.034Z,22.53
2023-02-09T08:15:49.393Z,18.73
2023-02-09T08:18:19.769Z,21.07
2023-02-09T08:20:46.761Z,19.23
2023-02-09T08:23:22.664Z,20.50
2023-02-09T08:25:51.471Z,19.80
2023-02-09T08:28:19.627Z,20.20
2023-02-09T08:30:47.620Z,18.47
2023-02-09T08:33:14.359Z,22.07
2023-02-09T08:35:41.218Z,19.53
2023-02-09T08:38:07.882Z,20.37
2023-02-09T08:40:40.273Z,20.27
2023-02-09T08:43:07.789Z,19.80
2023-02-09T08:45:38.865Z,21.20
2023-02-09T08:48:11.522Z,19.13
2023-02-09T08:50:39.462Z,22.27
2023-02-09T08:53:07.012Z,22.17
2023-02-09T08:55:34.252Z,18.87
2023-02-09T08:58:00.712Z,20.23
2023-02-09T09:00:29.912Z,19.33
2023-02-09T09:02:57.014Z,21.23
2023-02-09T09:05:23.452Z,18.63
2023-02-09T09:07:49.847Z,21.73
2023-02-09T09:10:16.753Z,22.37
2023-02-09T09:12:43.637Z,20.03
2023-02-09T09:15:10.372Z,19.60
2023-02-09T09:17:36.927Z,21.07
2023-02-09T09:20:03.701Z,19.70
2023-02-09T09:22:30.084Z,20.40
2023-02-09T09:24:56.589Z,21.77
2023-02-09T09:27:24.448Z,19.40
2023-02-09T09:29:51.939Z,23.83
2023-02-09T09:32:24.455Z,24.33
2023-02-09T09:34:56.144Z,26.10
2023-02-09T09:37:23.372Z,21.50
2023-02-09T09:39:50.219Z,26.17
2023-02-09T09:42:43.116Z,25.23
2023-02-09T09:45:15.867Z,20.77
2023-02-09T09:47:44.023Z,23.43
2023-02-09T09:50:21.394Z,23.63
2023-02-09T09:52:55.329Z,23.73
2023-02-09T09:55:28.116Z,26.63
2023-02-09T09:57:56.475Z,32.33
2023-02-09T10:00:27.661Z,18.63
2023-02-09T10:02:54.138Z,19.80
2023-02-09T10:05:28.127Z,20.60
2023-02-09T10:08:05.340Z,17.70
2023-02-09T10:10:43.518Z,19.23
2023-02-09T10:13:21.007Z,18.70
2023-02-09T10:15:49.807Z,19.43
2023-02-09T10:18:17.295Z,17.13
2023-02-09T10:21:01.352Z,16.63
2023-02-09T10:24:00.079Z,15.73
2023-02-09T10:26:32.257Z,18.40
2023-02-09T10:29:07.831Z,16.60
2023-02-09T10:31:40.193Z,17.63
2023-02-09T10:34:20.218Z,14.10
2023-02-09T10:37:02.904Z,15.73
2023-02-09T10:39:35.346Z,18.70
2023-02-09T10:42:18.005Z,15.53
2023-02-09T10:44:49.601Z,16.60
2023-02-09T10:47:18.826Z,16.17
2023-02-09T10:49:55.379Z,16.37
2023-02-09T10:52:26.195Z,16.77
2023-02-09T10:54:59.808Z,15.77
2023-02-09T10:57:34.033Z,17.37
2023-02-09T11:00:21.797Z,16.30
2023-02-09T11:02:48.140Z,17.27
2023-02-09T11:05:20.644Z,17.47
2023-02-09T11:08:27.722Z,15.77
2023-02-09T11:11:28.061Z,16.40
2023-02-09T11:13:54.660Z,19.70
2023-02-09T11:16:37.954Z,18.03
2023-02-09T11:19:22.534Z,18.77
2023-02-09T11:22:07.730Z,19.93
2023-02-09T11:24:46.310Z,17.07
2023-02-09T11:27:23.826Z,17.87
2023-02-09T11:29:58.268Z,16.73
2023-02-09T11:32:37.082Z,17.77
2023-02-09T11:35:09.469Z,17.17
2023-02-09T11:37:49.139Z,17.10
2023-02-09T11:40:15.500Z,19.97
2023-02-09T11:43:05.834Z,16.93
2023-02-09T11:45:55.155Z,18.80
2023-02-09T11:48:26.247Z,18.10
2023-02-09T11:50:57.612Z,16.43
2023-02-09T11:53:48.654Z,16.80
2023-02-09T11:56:21.280Z,14.97
2023-02-09T11:58:56.938Z,17.27
2023-02-09T12:01:32.481Z,17.07
2023-02-09T12:04:16.803Z,17.83
2023-02-09T12:06:49.640Z,17.10
2023-02-09T12:09:31.467Z,16.27
2023-02-09T12:12:38.402Z,15.30
2023-02-09T12:15:16.637Z,15.53
2023-02-09T12:17:51.195Z,18.90
2023-02-09T12:20:30.868Z,13.77
2023-02-09T12:23:15.870Z,15.60
2023-02-09T12:25:51.507Z,15.73
2023-02-09T12:28:24.365Z,15.80
2023-02-09T12:30:51.092Z,15.97
2023-02-09T12:33:23.333Z,17.20
2023-02-09T12:36:08.081Z,17.10
2023-02-09T12:39:04.586Z,18.13
2023-02-09T12:41:51.242Z,17.97
2023-02-09T12:44:18.392Z,15.53
2023-02-09T12:46:44.954Z,19.30
2023-02-09T12:49:11.617Z,17.47
2023-02-09T12:51:50.297Z,16.17
2023-02-09T12:54:48.322Z,16.43
2023-02-09T12:57:14.685Z,15.70
2023-02-09T13:00:04.652Z,14.67
2023-02-09T13:02:37.283Z,14.13
2023-02-09T13:05:15.192Z,15.37
2023-02-09T13:08:05.953Z,15.97
2023-02-09T13:10:51.663Z,13.63
2023-02-09T13:13:34.016Z,14.53
2023-02-09T13:16:00.344Z,15.13
2023-02-09T13:19:00.623Z,15.33
2023-02-09T13:21:42.611Z,13.13
2023-02-09T13:24:16.924Z,12.63
2023-02-09T13:26:53.667Z,15.70
2023-02-09T13:29:22.892Z,16.27
2023-02-09T13:32:14.809Z,15.97
2023-02-09T13:34:53.260Z,17.27
2023-02-09T13:37:25.506Z,17.80
2023-02-09T13:39:57.895Z,17.03
2023-02-09T13:42:26.749Z,23.30
2023-02-09T13:44:56.076Z,16.17
2023-02-09T13:47:23.912Z,17.37
2023-02-09T13:50:03.598Z,17.23
2023-02-09T13:52:38.814Z,23.37
2023-02-09T13:55:13.470Z,22.20
2023-02-09T13:57:43.369Z,20.70
2023-02-09T14:00:25.846Z,18.53
2023-02-09T14:03:02.267Z,17.40
2023-02-09T14:06:24.198Z,18.83
2023-02-09T14:08:52.129Z,16.40
2023-02-09T14:11:41.497Z,17.57
2023-02-09T14:14:14.952Z,15.63
2023-02-09T14:16:52.591Z,17.97
2023-02-09T14:19:31.254Z,16.00
2023-02-09T14:21:57.729Z,18.17
2023-02-09T14:24:25.978Z,16.20
2023-02-09T14:27:16.406Z,15.93
2023-02-09T14:29:47.099Z,14.13
2023-02-09T14:32:33.311Z,13.37
2023-02-09T14:35:20.046Z,17.43
2023-02-09T14:37:47.952Z,17.20
2023-02-09T14:40:23.757Z,16.13
2023-02-09T14:43:09.320Z,16.17
2023-02-09T14:45:48.858Z,16.27
2023-02-09T14:48:19.441Z,15.63
2023-02-09T14:50:47.835Z,18.57
2023-02-09T14:53:16.122Z,18.00
2023-02-09T14:55:44.554Z,15.90
2023-02-09T14:58:24.639Z,15.67
2023-02-09T15:00:52.509Z,14.53
2023-02-09T15:03:19.504Z,18.97
2023-02-09T15:05:48.520Z,19.90
2023-02-09T15:08:19.943Z,24.47
2023-02-09T15:10:53.358Z,19.00
2023-02-09T15:13:21.240Z,16.50
2023-02-09T15:15:47.986Z,18.30
2023-02-09T15:18:19.957Z,16.97
2023-02-09T15:20:46.900Z,15.73
2023-02-09T15:23:13.673Z,17.40
2023-02-09T15:25:41.260Z,18.30
2023-02-09T15:28:34.296Z,18.93
2023-02-09T15:31:00.803Z,18.30
2023-02-09T15:33:28.615Z,19.57
2023-02-09T15:35:58.947Z,20.30
2023-02-09T15:38:27.814Z,21.20
2023-02-09T15:41:12.746Z,14.77
2023-02-09T15:43:57.902Z,18.97
2023-02-09T15:46:42.805Z,15.83
2023-02-09T15:49:09.406Z,16.57
2023-02-09T15:51:38.566Z,20.30
2023-02-09T15:54:14.358Z,17.27
2023-02-09T15:56:41.204Z,17.47
2023-02-09T15:59:16.069Z,17.17
2023-02-09T16:01:42.700Z,16.80
2023-02-09T16:04:14.184Z,18.50
2023-02-09T16:06:53.729Z,16.70
2023-02-09T16:09:28.653Z,20.33
2023-02-09T16:11:55.254Z,19.33
2023-02-09T16:14:24.307Z,19.43
2023-02-09T16:16:51.361Z,15.93
2023-02-09T16:19:17.986Z,19.63
2023-02-09T16:21:48.906Z,17.67
2023-02-09T16:24:30.154Z,16.40
2023-02-09T16:27:02.666Z,20.73
2023-02-09T16:29:29.128Z,19.03
2023-02-09T16:31:55.672Z,17.20
2023-02-09T16:34:22.110Z,19.03
2023-02-09T16:36:49.053Z,18.80
2023-02-09T16:39:20.771Z,19.57
2023-02-09T16:41:48.123Z,22.77
2023-02-09T16:44:19.599Z,19.57
2023-02-09T16:46:48.620Z,19.93
2023-02-09T16:49:31.376Z,20.30
2023-02-09T16:52:02.619Z,18.60
2023-02-09T16:54:33.303Z,20.03
2023-02-09T16:57:00.851Z,20.73
2023-02-09T16:59:27.294Z,21.73
2023-02-09T17:01:53.757Z,23.33
2023-02-09T17:04:20.238Z,22.73
2023-02-09T17:06:52.645Z,20.57
2023-02-09T17:09:19.096Z,23.27
2023-02-09T17:11:45.695Z,18.70
2023-02-09T17:14:12.661Z,21.70
2023-02-09T17:16:43.464Z,19.83
2023-02-09T17:19:15.129Z,22.33
2023-02-09T17:21:42.337Z,21.10
2023-02-09T17:24:17.178Z,20.57
2023-02-09T17:26:44.479Z,19.43
2023-02-09T17:29:11.373Z,17.20
2023-02-09T17:31:52.376Z,17.63
2023-02-09T17:34:20.523Z,19.23
2023-02-09T17:36:47.034Z,19.67
2023-02-09T17:39:14.180Z,23.27
2023-02-09T17:41:45.429Z,19.47
2023-02-09T17:44:29.081Z,19.37
2023-02-09T17:47:05.202Z,19.17
2023-02-09T17:49:32.100Z,18.47
2023-02-09T17:51:58.494Z,18.73
2023-02-09T17:54:25.201Z,20.17
2023-02-09T17:56:51.613Z,19.57
2023-02-09T17:59:20.089Z,19.40
2023-02-09T18:01:50.022Z,18.50
2023-02-09T18:04:23.192Z,20.87
2023-02-09T18:06:49.694Z,20.37
2023-02-09T18:09:16.253Z,19.60
2023-02-09T18:11:52.154Z,20.00
2023-02-09T18:14:20.417Z,18.00
2023-02-09T18:16:47.727Z,20.07
2023-02-09T18:19:15.733Z,21.13
2023-02-09T18:21:57.359Z,18.87
2023-02-09T18:24:25.892Z,19.43
2023-02-09T18:26:52.355Z,17.67
2023-02-09T18:29:22.795Z,20.23
2023-02-09T18:31:50.025Z,19.20
2023-02-09T18:34:16.859Z,19.47
2023-02-09T18:36:43.924Z,21.73
2023-02-09T18:39:10.647Z,19.07
2023-02-09T18:41:37.315Z,18.60
2023-02-09T18:44:03.747Z,17.73
2023-02-09T18:46:30.328Z,21.97
2023-02-09T18:48:56.940Z,22.33
2023-02-09T18:51:23.480Z,21.10
2023-02-09T18:53:51.122Z,20.07
2023-02-09T18:56:19.785Z,20.87
2023-02-09T18:58:47.850Z,21.07
2023-02-09T19:01:14.334Z,21.40
2023-02-09T19:03:41.471Z,19.67
2023-02-09T19:06:12.408Z,25.17
2023-02-09T19:08:39.711Z,21.40
2023-02-09T19:11:07.180Z,20.13
2023-02-09T19:13:34.067Z,21.73
2023-02-09T19:16:00.795Z,16.57
2023-02-09T19:18:27.697Z,23.13
2023-02-09T19:20:55.629Z,23.27
2023-02-09T19:23:24.075Z,22.27
2023-02-09T19:26:00.983Z,20.93
2023-02-09T19:28:27.497Z,19.93
2023-02-09T19:30:54.016Z,20.70
2023-02-09T19:33:23.048Z,22.10
2023-02-09T19:35:59.806Z,22.57
2023-02-09T19:38:26.847Z,22.73
2023-02-09T19:41:08.527Z,24.23
2023-02-09T19:43:36.650Z,22.87
2023-02-09T19:46:04.435Z,24.57
2023-02-09T19:48:31.463Z,22.60
2023-02-09T19:50:59.243Z,22.13
2023-02-09T19:53:26.729Z,25.93
2023-02-09T19:55:53.972Z,22.93
2023-02-09T19:58:23.714Z,25.03
2023-02-09T20:00:51.898Z,25.47
2023-02-09T20:03:18.644Z,23.60
2023-02-09T20:05:45.836Z,23.27
2023-02-09T20:08:16.355Z,23.70
2023-02-09T20:10:44.306Z,24.40
2023-02-09T20:13:12.957Z,22.93
2023-02-09T20:15:43.913Z,27.03
2023-02-09T20:18:13.525Z,24.07
2023-02-09T20:20:43.112Z,23.30
2023-02-09T20:23:10.108Z,27.33
2023-02-09T20:25:39.660Z,27.60
2023-02-09T20:28:06.316Z,24.60
2023-02-09T20:30:32.880Z,28.47
2023-02-09T20:32:59.325Z,24.43
2023-02-09T20:35:26.988Z,26.00
2023-02-09T20:37:53.756Z,28.60
2023-02-09T20:40:20.257Z,30.67
2023-02-09T20:43:05.371Z,24.63
2023-02-09T20:45:50.336Z,30.33
2023-02-09T20:48:17.388Z,29.00
2023-02-09T20:50:45.462Z,27.40
2023-02-09T20:53:12.732Z,28.80
2023-02-09T20:55:39.754Z,28.13
2023-02-09T20:58:06.626Z,28.27
2023-02-09T21:00:35.159Z,26.40
2023-02-09T21:03:01.980Z,30.03
2023-02-09T21:05:28.408Z,31.33
2023-02-09T21:07:55.900Z,33.23
2023-02-09T21:10:22.481Z,35.27
2023-02-09T21:12:48.922Z,32.83
2023-02-09T21:15:15.743Z,31.47
2023-02-09T21:17:47.650Z,29.30
2023-02-09T21:20:16.186Z,30.60
2023-02-09T21:22:42.728Z,29.17
2023-02-09T21:25:10.045Z,31.90
2023-02-09T21:27:37.131Z,33.40
2023-02-09T21:30:04.951Z,34.67
2023-02-09T21:32:34.764Z,32.03
2023-02-09T21:35:02.058Z,31.37
2023-02-09T21:37:32.213Z,33.30
2023-02-09T21:40:02.769Z,33.00
2023-02-09T21:42:30.627Z,36.90
2023-02-09T21:44:57.943Z,31.43
2023-02-09T21:47:27.882Z,30.37
2023-02-09T21:49:54.386Z,30.00
2023-02-09T21:52:21.033Z,31.97
2023-02-09T21:54:47.575Z,33.17
2023-02-09T21:57:14.271Z,32.87
2023-02-09T21:59:40.762Z,35.80
2023-02-09T22:02:07.956Z,32.47
2023-02-09T22:04:34.495Z,34.57
2023-02-09T22:07:00.909Z,34.23
2023-02-09T22:09:27.980Z,35.67
2023-02-09T22:11:54.478Z,36.33
2023-02-09T22:14:20.894Z,39.67
2023-02-09T22:16:47.330Z,34.80
2023-02-09T22:19:14.133Z,34.73
2023-02-09T22:21:40.600Z,36.60
2023-02-09T22:24:07.373Z,39.80
2023-02-09T22:26:33.837Z,39.13
2023-02-09T22:29:00.368Z,36.97
2023-02-09T22:31:26.811Z,39.23
2023-02-09T22:33:54.033Z,35.93
2023-02-09T22:36:21.761Z,42.53
2023-02-09T22:38:48.183Z,35.77
2023-02-09T22:41:23.464Z,42.80
2023-02-09T22:44:02.722Z,40.40
2023-02-09T22:46:32.824Z,41.13
2023-02-09T22:49:02.700Z,39.97
2023-02-09T22:51:31.082Z,40.73
2023-02-09T22:53:59.171Z,40.33
2023-02-09T22:56:27.347Z,44.20
2023-02-09T22:58:54.826Z,40.87
2023-02-09T23:01:21.616Z,42.47
2023-02-09T23:03:48.769Z,42.30
2023-02-09T23:06:18.091Z,44.00
2023-02-09T23:08:45.428Z,44.90
2023-02-09T23:11:15.093Z,47.27
2023-02-09T23:13:42.456Z,44.07
2023-02-09T23:16:22.558Z,51.93
2023-02-09T23:18:52.673Z,46.63
2023-02-09T23:21:21.703Z,53.20
2023-02-09T23:23:48.332Z,51.10
2023-02-09T23:26:16.416Z,49.60
2023-02-09T23:28:43.103Z,54.47
2023-02-09T23:31:17.304Z,53.73
2023-02-09T23:33:44.822Z,52.07
2023-02-09T23:36:22.834Z,47.17
2023-02-09T23:38:56.855Z,49.03
2023-02-09T23:41:24.161Z,49.03
2023-02-09T23:43:51.653Z,48.77
2023-02-09T23:46:20.951Z,55.17
2023-02-09T23:48:47.957Z,56.87
2023-02-09T23:51:20.892Z,46.77
2023-02-09T23:53:48.047Z,53.73
2023-02-09T23:56:16.082Z,51.13
2023-02-09T23:58:44.699Z,56.13
